Terminal Aerodrome Forecast
Issued by NWS

Home | Current Version | Previous Version | Text Only | Print | Product List | Glossary On
Versions: 1 2 3 4 5 6 7 8 9 10 11 12 13 14 15 16 17 18 19 20 21 22
464
FTUS43 KGRB 172024 AAA
TAFCWA
TAF AMD
KCWA 172024Z 1720/1818 16011G17KT 2SM -RA OVC012
      TEMPO 1720/1722 5SM -DZ BR OVC008
     FM172200 16010KT 4SM -RA BR OVC008
     FM180000 17004KT 2SM -RA BR OVC005
     FM180300 VRB03KT 4SM -RA BR OVC004
     FM180600 35005KT 5SM -RASN BR OVC005
     FM181000 34007KT 6SM -RASN BR OVC008
     FM181400 34010G16KT P6SM OVC015=

USA.gov is the U.S. government's official web portal to all federal, state and local government web resources and services.